createdAt,value
2018-08-17T00:00:24.435Z,94.50
2018-08-17T00:02:52.969Z,94.50
2018-08-17T00:05:21.623Z,94.40
2018-08-17T00:07:50.363Z,94.80
2018-08-17T00:10:18.985Z,95.60
2018-08-17T00:12:47.532Z,95.40
2018-08-17T00:15:16.092Z,95.40
2018-08-17T00:17:44.699Z,95.20
2018-08-17T00:20:13.284Z,95.60
2018-08-17T00:22:41.834Z,95.60
2018-08-17T00:25:10.388Z,96.10
2018-08-17T00:27:39.059Z,96.50
2018-08-17T00:30:08.428Z,96.00
2018-08-17T00:32:36.988Z,96.30
2018-08-17T00:35:05.564Z,96.40
2018-08-17T00:37:34.414Z,96.20
2018-08-17T00:40:03.012Z,96.40
2018-08-17T00:42:31.563Z,96.20
2018-08-17T00:45:00.198Z,96.40
2018-08-17T00:47:28.746Z,96.60
2018-08-17T00:49:57.252Z,97.00
2018-08-17T00:52:25.785Z,97.20
2018-08-17T00:54:54.321Z,97.20
2018-08-17T00:57:22.848Z,96.90
2018-08-17T00:59:51.388Z,96.80
2018-08-17T01:02:19.919Z,96.70
2018-08-17T01:04:48.425Z,97.00
2018-08-17T01:07:16.961Z,97.30
2018-08-17T01:09:45.524Z,97.10
2018-08-17T01:12:14.063Z,97.40
2018-08-17T01:14:42.571Z,97.50
2018-08-17T01:17:11.135Z,97.80
2018-08-17T01:19:39.693Z,97.90
2018-08-17T01:22:08.229Z,98.10
2018-08-17T01:24:36.777Z,97.80
2018-08-17T01:27:05.340Z,98.00
2018-08-17T01:29:33.878Z,98.60
2018-08-17T01:32:02.415Z,98.90
2018-08-17T01:34:30.931Z,98.50
2018-08-17T01:36:59.463Z,98.30
2018-08-17T01:39:28.022Z,98.60
2018-08-17T01:41:56.547Z,98.40
2018-08-17T01:44:25.084Z,98.30
2018-08-17T01:46:53.623Z,97.90
2018-08-17T01:49:22.107Z,97.20
2018-08-17T01:51:52.785Z,96.90
2018-08-17T01:54:21.322Z,95.50
2018-08-17T01:56:49.836Z,94.30
2018-08-17T01:59:18.364Z,93.30
2018-08-17T02:01:46.930Z,92.90
2018-08-17T02:04:15.495Z,92.70
2018-08-17T02:06:44.115Z,92.70
2018-08-17T02:09:13.074Z,93.30
2018-08-17T02:11:41.990Z,93.90
2018-08-17T02:14:10.631Z,95.00
2018-08-17T02:16:39.664Z,95.10
2018-08-17T02:19:08.201Z,95.40
2018-08-17T02:21:36.753Z,95.80
2018-08-17T02:24:05.327Z,96.00
2018-08-17T02:26:33.885Z,96.50
2018-08-17T02:29:02.424Z,97.10
2018-08-17T02:31:30.946Z,96.50
2018-08-17T02:33:59.451Z,96.30
2018-08-17T02:36:28.001Z,96.50
2018-08-17T02:38:56.606Z,96.50
2018-08-17T02:41:25.150Z,96.00
2018-08-17T02:43:53.678Z,95.90
2018-08-17T02:46:22.198Z,94.70
2018-08-17T02:48:50.714Z,95.00
2018-08-17T02:51:19.250Z,95.00
2018-08-17T02:53:47.790Z,95.40
2018-08-17T02:56:16.317Z,95.30
2018-08-17T02:58:44.845Z,95.20
2018-08-17T03:01:13.382Z,95.10
2018-08-17T03:03:41.935Z,95.70
2018-08-17T03:06:10.456Z,95.70
2018-08-17T03:08:38.993Z,95.80
2018-08-17T03:11:07.560Z,95.90
2018-08-17T03:13:36.132Z,96.10
2018-08-17T03:16:04.702Z,96.10
2018-08-17T03:18:33.275Z,97.00
2018-08-17T03:21:01.853Z,97.20
2018-08-17T03:23:30.366Z,97.20
2018-08-17T03:25:58.880Z,97.40
2018-08-17T03:28:27.401Z,97.50
2018-08-17T03:30:55.954Z,97.90
2018-08-17T03:33:24.481Z,98.30
2018-08-17T03:35:53.023Z,98.20
2018-08-17T03:38:21.550Z,98.00
2018-08-17T03:40:50.111Z,97.60
2018-08-17T03:43:18.656Z,97.70
2018-08-17T03:45:47.171Z,97.70
2018-08-17T03:48:15.703Z,98.00
2018-08-17T03:50:44.280Z,98.00
2018-08-17T03:53:12.795Z,98.10
2018-08-17T03:55:41.317Z,98.20
2018-08-17T03:58:09.828Z,98.40
2018-08-17T04:00:38.348Z,97.90
2018-08-17T04:03:06.938Z,97.80
2018-08-17T04:05:35.542Z,97.80
2018-08-17T04:08:04.182Z,97.70
2018-08-17T04:10:32.690Z,98.30
2018-08-17T04:13:01.226Z,98.50
2018-08-17T04:15:29.776Z,98.40
2018-08-17T04:17:58.251Z,98.70
2018-08-17T04:20:26.776Z,98.70
2018-08-17T04:22:55.320Z,99.00
2018-08-17T04:25:23.861Z,99.20
2018-08-17T04:27:52.398Z,99.10
2018-08-17T04:30:20.931Z,98.90
2018-08-17T04:32:49.467Z,99.10
2018-08-17T04:35:18.069Z,98.70
2018-08-17T04:37:46.583Z,98.70
2018-08-17T04:40:15.119Z,98.80
2018-08-17T04:42:43.635Z,98.80
2018-08-17T04:45:12.235Z,98.40
2018-08-17T04:47:40.797Z,98.20
2018-08-17T04:50:10.032Z,98.40
2018-08-17T04:52:39.295Z,98.50
2018-08-17T04:55:08.249Z,98.50
2018-08-17T04:57:36.909Z,98.20
2018-08-17T05:00:07.021Z,98.20
2018-08-17T05:02:35.779Z,98.20
2018-08-17T05:05:04.537Z,98.50
2018-08-17T05:07:33.055Z,98.50
2018-08-17T05:10:01.573Z,98.60
2018-08-17T05:12:30.113Z,98.60
2018-08-17T05:14:58.640Z,98.80
2018-08-17T05:17:27.166Z,98.80
2018-08-17T05:19:55.710Z,98.90
2018-08-17T05:22:24.248Z,99.20
2018-08-17T05:24:52.988Z,99.20
2018-08-17T05:27:21.506Z,99.10
2018-08-17T05:29:50.028Z,99.00
2018-08-17T05:32:18.641Z,99.20
2018-08-17T05:34:47.170Z,99.70
2018-08-17T05:37:15.677Z,99.90
2018-08-17T05:39:44.216Z,99.90
2018-08-17T05:42:12.790Z,99.90
2018-08-17T05:44:41.325Z,99.90
2018-08-17T05:47:09.880Z,99.90
2018-08-17T05:49:38.414Z,99.90
2018-08-17T05:52:07.090Z,99.60
2018-08-17T05:54:35.623Z,99.60
2018-08-17T05:57:04.205Z,99.40
2018-08-17T05:59:32.719Z,99.40
2018-08-17T06:02:01.265Z,99.00
2018-08-17T06:04:29.819Z,99.10
2018-08-17T06:06:58.349Z,99.60
2018-08-17T06:09:26.897Z,99.30
2018-08-17T06:11:55.435Z,99.50
2018-08-17T06:14:24.018Z,99.40
2018-08-17T06:16:52.581Z,99.30
2018-08-17T06:19:21.141Z,98.90
2018-08-17T06:21:49.667Z,99.40
2018-08-17T06:24:18.223Z,99.90
2018-08-17T06:26:46.780Z,99.90
2018-08-17T06:29:15.363Z,97.50
2018-08-17T06:31:44.061Z,97.50
2018-08-17T06:34:12.515Z,98.50
2018-08-17T06:36:41.123Z,98.40
2018-08-17T06:39:11.152Z,99.30
2018-08-17T06:41:39.734Z,99.90
2018-08-17T06:44:08.353Z,99.90
2018-08-17T06:46:36.966Z,96.00
2018-08-17T06:49:05.603Z,96.50
2018-08-17T06:51:34.169Z,99.40
2018-08-17T06:54:02.669Z,99.90
2018-08-17T06:56:31.259Z,99.90
2018-08-17T06:58:59.809Z,97.10
2018-08-17T07:01:28.331Z,96.50
2018-08-17T07:03:56.886Z,96.80
2018-08-17T07:06:25.456Z,95.70
2018-08-17T07:08:54.080Z,95.50
2018-08-17T07:11:22.784Z,94.00
2018-08-17T07:13:51.402Z,93.80
2018-08-17T07:16:19.917Z,93.40
2018-08-17T07:18:48.480Z,93.20
2018-08-17T07:21:17.529Z,92.80
2018-08-17T07:23:46.108Z,93.90
2018-08-17T07:26:14.679Z,92.80
2018-08-17T07:28:43.210Z,91.30
2018-08-17T07:31:11.765Z,91.80
2018-08-17T07:33:40.332Z,93.20
2018-08-17T07:36:08.868Z,92.20
2018-08-17T07:38:37.436Z,91.20
2018-08-17T07:41:06.033Z,90.00
2018-08-17T07:43:34.583Z,85.50
2018-08-17T07:46:03.112Z,86.30
2018-08-17T07:48:31.657Z,84.00
2018-08-17T07:51:00.293Z,83.00
2018-08-17T07:53:28.815Z,83.80
2018-08-17T07:55:57.347Z,87.30
2018-08-17T07:58:25.925Z,85.20
2018-08-17T08:00:54.473Z,86.80
2018-08-17T08:03:23.035Z,84.40
2018-08-17T08:05:51.571Z,87.20
2018-08-17T08:08:20.107Z,86.80
2018-08-17T08:10:48.641Z,82.80
2018-08-17T08:13:17.185Z,78.00
2018-08-17T08:15:45.731Z,80.70
2018-08-17T08:18:14.351Z,80.10
2018-08-17T08:20:44.472Z,76.30
2018-08-17T08:23:21.609Z,72.90
2018-08-17T08:25:50.232Z,72.90
2018-08-17T08:28:18.842Z,71.40
2018-08-17T08:30:47.674Z,71.10
2018-08-17T08:33:16.216Z,69.70
2018-08-17T08:35:44.926Z,69.30
2018-08-17T08:38:13.512Z,67.90
2018-08-17T08:40:42.083Z,68.70
2018-08-17T08:43:10.628Z,67.50
2018-08-17T08:45:39.422Z,67.50
2018-08-17T08:48:08.776Z,68.50
2018-08-17T08:50:37.900Z,64.60
2018-08-17T08:53:07.124Z,67.00
2018-08-17T08:55:35.692Z,68.50
2018-08-17T08:58:04.346Z,66.70
2018-08-17T09:00:32.876Z,66.40
2018-08-17T09:03:01.423Z,66.40
2018-08-17T09:05:29.972Z,64.10
2018-08-17T09:07:58.619Z,62.40
2018-08-17T09:10:27.172Z,63.10
2018-08-17T09:12:55.704Z,65.80
2018-08-17T09:15:24.301Z,63.10
2018-08-17T09:17:52.890Z,66.40
2018-08-17T09:20:21.568Z,63.20
2018-08-17T09:22:49.990Z,61.60
2018-08-17T09:25:18.582Z,61.10
2018-08-17T09:27:47.100Z,59.20
2018-08-17T09:30:15.840Z,59.00
2018-08-17T09:32:44.395Z,59.50
2018-08-17T09:35:13.783Z,59.90
2018-08-17T09:37:42.326Z,61.00
2018-08-17T09:40:11.583Z,58.90
2018-08-17T09:42:40.155Z,60.70
2018-08-17T09:45:10.535Z,56.90
2018-08-17T09:47:39.083Z,56.20
2018-08-17T09:50:10.739Z,54.80
2018-08-17T09:52:39.482Z,54.00
2018-08-17T09:55:08.055Z,54.40
2018-08-17T09:57:36.651Z,56.70
2018-08-17T10:00:06.842Z,56.30
2018-08-17T10:02:40.853Z,57.60
2018-08-17T10:05:14.648Z,58.70
2018-08-17T10:07:48.498Z,60.30
2018-08-17T10:10:22.492Z,59.20
2018-08-17T10:12:51.741Z,58.90
2018-08-17T10:15:21.736Z,59.60
2018-08-17T10:17:50.307Z,59.20
2018-08-17T10:20:22.045Z,58.20
2018-08-17T10:22:50.592Z,58.80
2018-08-17T10:25:22.175Z,59.10
2018-08-17T10:27:51.945Z,59.10
2018-08-17T10:30:21.343Z,59.40
2018-08-17T10:32:55.169Z,57.20
2018-08-17T10:35:25.991Z,55.20
2018-08-17T10:37:56.837Z,56.80
2018-08-17T10:40:25.846Z,57.60
2018-08-17T10:42:54.471Z,59.70
2018-08-17T10:45:25.164Z,56.10
2018-08-17T10:47:53.959Z,54.70
2018-08-17T10:50:23.784Z,55.60
2018-08-17T10:52:53.433Z,58.30
2018-08-17T10:55:23.363Z,53.20
2018-08-17T10:57:52.050Z,54.00
2018-08-17T11:00:21.976Z,53.40
2018-08-17T11:02:50.513Z,52.10
2018-08-17T11:05:19.224Z,52.20
2018-08-17T11:07:48.915Z,54.30
2018-08-17T11:10:20.305Z,52.20
2018-08-17T11:12:48.807Z,50.40
2018-08-17T11:15:17.395Z,50.00
2018-08-17T11:17:46.470Z,51.70
2018-08-17T11:20:15.662Z,50.60
2018-08-17T11:22:44.254Z,51.20
2018-08-17T11:25:12.818Z,49.80
2018-08-17T11:27:41.357Z,50.20
2018-08-17T11:30:11.832Z,49.40
2018-08-17T11:32:40.820Z,50.80
2018-08-17T11:35:09.448Z,49.50
2018-08-17T11:37:38.073Z,49.10
2018-08-17T11:40:08.376Z,48.50
2018-08-17T11:42:45.192Z,49.30
2018-08-17T11:45:22.507Z,48.50
2018-08-17T11:47:51.752Z,47.50
2018-08-17T11:50:21.715Z,48.30
2018-08-17T11:52:55.226Z,49.50
2018-08-17T11:55:24.862Z,50.50
2018-08-17T11:57:53.562Z,50.80
2018-08-17T12:00:22.156Z,51.00
2018-08-17T12:02:50.722Z,50.60
2018-08-17T12:05:19.288Z,51.40
2018-08-17T12:07:48.362Z,53.10
2018-08-17T12:10:17.034Z,52.70
2018-08-17T12:12:46.113Z,53.20
2018-08-17T12:15:15.235Z,55.00
2018-08-17T12:17:43.785Z,55.90
2018-08-17T12:20:12.299Z,56.90
2018-08-17T12:22:40.814Z,57.60
2018-08-17T12:25:10.036Z,55.30
2018-08-17T12:27:38.811Z,57.80
2018-08-17T12:30:08.567Z,57.60
2018-08-17T12:32:37.122Z,59.20
2018-08-17T12:35:05.777Z,59.80
2018-08-17T12:37:34.370Z,59.60
2018-08-17T12:40:02.981Z,57.00
2018-08-17T12:42:35.169Z,58.10
2018-08-17T12:45:09.033Z,58.50
2018-08-17T12:47:37.619Z,58.50
2018-08-17T12:50:06.185Z,58.00
2018-08-17T12:52:35.313Z,58.40
2018-08-17T12:55:04.223Z,59.00
2018-08-17T12:57:42.163Z,56.40
2018-08-17T13:00:11.783Z,58.40
2018-08-17T13:02:40.391Z,55.70
2018-08-17T13:05:08.970Z,56.60
2018-08-17T13:07:37.558Z,54.30
2018-08-17T13:10:06.218Z,54.40
2018-08-17T13:12:34.738Z,52.50
2018-08-17T13:15:03.376Z,53.30
2018-08-17T13:17:37.946Z,55.40
2018-08-17T13:20:06.926Z,58.40
2018-08-17T13:22:35.567Z,54.90
2018-08-17T13:25:04.240Z,54.30
2018-08-17T13:27:32.786Z,54.40
2018-08-17T13:30:01.418Z,55.40
2018-08-17T13:32:29.944Z,59.40
2018-08-17T13:34:58.494Z,54.80
2018-08-17T13:37:27.070Z,56.00
2018-08-17T13:39:55.684Z,56.40
2018-08-17T13:42:24.223Z,56.90
2018-08-17T13:44:52.764Z,54.40
2018-08-17T13:47:21.309Z,57.30
2018-08-17T13:49:49.835Z,54.50
2018-08-17T13:52:18.381Z,55.00
2018-08-17T13:54:46.916Z,55.30
2018-08-17T13:57:15.438Z,56.40
2018-08-17T13:59:43.977Z,56.80
2018-08-17T14:02:12.603Z,57.50
2018-08-17T14:04:41.081Z,58.50
2018-08-17T14:07:09.633Z,61.60
2018-08-17T14:09:38.260Z,59.00
2018-08-17T14:12:07.343Z,60.40
2018-08-17T14:14:35.893Z,60.50
2018-08-17T14:17:04.655Z,62.10
2018-08-17T14:19:33.197Z,60.60
2018-08-17T14:22:01.769Z,60.20
2018-08-17T14:24:30.414Z,58.30
2018-08-17T14:26:59.011Z,57.50
2018-08-17T14:29:27.555Z,57.60
2018-08-17T14:31:56.121Z,59.20
2018-08-17T14:34:24.752Z,58.00
2018-08-17T14:36:53.277Z,57.90
2018-08-17T14:39:21.845Z,58.50
2018-08-17T14:41:55.859Z,58.50
2018-08-17T14:44:24.811Z,58.80
2018-08-17T14:46:53.583Z,60.00
2018-08-17T14:49:22.172Z,60.00
2018-08-17T14:51:50.863Z,60.90
2018-08-17T14:54:19.465Z,61.20
2018-08-17T14:56:48.052Z,58.10
2018-08-17T14:59:17.161Z,58.30
2018-08-17T15:01:45.832Z,59.40
2018-08-17T15:04:14.536Z,58.80
2018-08-17T15:06:43.060Z,61.90
2018-08-17T15:09:13.152Z,61.10
2018-08-17T15:11:42.546Z,63.70
2018-08-17T15:14:12.664Z,61.70
2018-08-17T15:16:41.447Z,62.10
2018-08-17T15:19:10.014Z,63.00
2018-08-17T15:21:38.890Z,63.90
2018-08-17T15:24:07.596Z,63.70
2018-08-17T15:26:36.236Z,63.10
2018-08-17T15:29:04.760Z,63.60
2018-08-17T15:31:33.364Z,63.20
2018-08-17T15:34:01.923Z,62.70
2018-08-17T15:36:30.476Z,62.80
2018-08-17T15:38:59.018Z,57.90
2018-08-17T15:41:27.637Z,71.80
2018-08-17T15:43:56.052Z,76.80
2018-08-17T15:46:24.576Z,81.50
2018-08-17T15:48:55.322Z,84.60
2018-08-17T15:51:23.910Z,88.90
2018-08-17T15:53:52.497Z,90.90
2018-08-17T15:56:21.900Z,92.50
2018-08-17T15:58:50.456Z,93.60
2018-08-17T16:01:19.055Z,95.60
2018-08-17T16:03:47.604Z,97.80
2018-08-17T16:06:16.135Z,99.00
2018-08-17T16:08:44.693Z,99.90
2018-08-17T16:11:13.407Z,99.90
2018-08-17T16:13:41.957Z,99.90
2018-08-17T16:16:10.512Z,99.90
2018-08-17T16:18:39.061Z,99.90
2018-08-17T16:21:07.692Z,99.90
2018-08-17T16:23:36.216Z,99.90
2018-08-17T16:26:05.193Z,99.90
2018-08-17T16:28:33.765Z,99.90
2018-08-17T16:31:02.308Z,99.90
2018-08-17T16:33:30.867Z,99.90
2018-08-17T16:35:59.440Z,99.90
2018-08-17T16:38:28.007Z,99.90
2018-08-17T16:40:56.606Z,99.90
2018-08-17T16:43:36.113Z,99.90
2018-08-17T16:46:04.711Z,99.90
2018-08-17T16:48:33.210Z,99.90
2018-08-17T16:51:01.736Z,99.90
2018-08-17T16:53:30.262Z,99.90
2018-08-17T16:55:58.822Z,99.90
2018-08-17T16:58:27.578Z,99.90
2018-08-17T17:00:56.170Z,99.90
2018-08-17T17:03:24.694Z,99.90
2018-08-17T17:06:00.555Z,99.90
2018-08-17T17:08:29.513Z,99.90
2018-08-17T17:10:58.238Z,99.90
2018-08-17T17:13:26.783Z,99.90
2018-08-17T17:16:01.840Z,99.90
2018-08-17T17:18:30.335Z,99.90
2018-08-17T17:20:58.910Z,99.90
2018-08-17T17:23:27.418Z,99.90
2018-08-17T17:25:55.962Z,99.90
2018-08-17T17:28:30.577Z,99.90
2018-08-17T17:30:59.400Z,99.90
2018-08-17T17:33:27.897Z,99.90
2018-08-17T17:35:56.461Z,99.90
2018-08-17T17:38:25.016Z,99.90
2018-08-17T17:40:53.563Z,99.90
2018-08-17T17:43:22.093Z,99.90
2018-08-17T17:45:50.635Z,99.90
2018-08-17T17:48:19.169Z,99.90
2018-08-17T17:50:47.737Z,99.90
2018-08-17T17:53:16.273Z,99.90
2018-08-17T17:55:49.383Z,99.90
2018-08-17T17:58:18.413Z,99.90
2018-08-17T18:00:57.964Z,99.90
2018-08-17T18:03:30.724Z,99.90
2018-08-17T18:06:04.775Z,99.90
2018-08-17T18:08:33.307Z,99.90
2018-08-17T18:11:01.866Z,99.90
2018-08-17T18:13:30.759Z,99.90
2018-08-17T18:15:59.329Z,99.90
2018-08-17T18:18:27.839Z,99.90
2018-08-17T18:20:56.365Z,99.90
2018-08-17T18:23:24.916Z,99.90
2018-08-17T18:25:53.460Z,99.90
2018-08-17T18:28:22.014Z,99.90
2018-08-17T18:30:50.654Z,99.90
2018-08-17T18:33:19.082Z,99.90
2018-08-17T18:35:47.589Z,99.90
2018-08-17T18:38:16.136Z,99.90
2018-08-17T18:40:44.664Z,99.90
2018-08-17T18:43:13.168Z,99.90
2018-08-17T18:45:41.702Z,99.90
2018-08-17T18:48:10.254Z,99.90
2018-08-17T18:50:38.810Z,99.90
2018-08-17T18:53:07.346Z,99.90
2018-08-17T18:55:35.913Z,99.90
2018-08-17T18:58:04.455Z,99.90
2018-08-17T19:00:33.065Z,99.90
2018-08-17T19:03:01.595Z,99.90
2018-08-17T19:05:30.166Z,99.90
2018-08-17T19:07:58.691Z,99.90
2018-08-17T19:10:27.196Z,99.90
2018-08-17T19:12:55.741Z,99.90
2018-08-17T19:15:24.271Z,99.90
2018-08-17T19:17:52.855Z,99.90
2018-08-17T19:20:21.457Z,99.90
2018-08-17T19:22:49.965Z,99.90
2018-08-17T19:25:18.485Z,99.90
2018-08-17T19:27:46.985Z,99.90
2018-08-17T19:30:22.080Z,99.90
2018-08-17T19:32:51.445Z,99.90
2018-08-17T19:35:20.022Z,99.90
2018-08-17T19:37:49.235Z,99.90
2018-08-17T19:40:17.900Z,99.90
2018-08-17T19:42:46.547Z,99.90
2018-08-17T19:45:15.121Z,99.90
2018-08-17T19:47:43.710Z,99.90
2018-08-17T19:50:12.490Z,99.90
2018-08-17T19:52:41.283Z,99.90
2018-08-17T19:55:09.872Z,99.90
2018-08-17T19:57:38.402Z,99.90
2018-08-17T20:00:09.213Z,99.90
2018-08-17T20:02:37.763Z,99.90
2018-08-17T20:05:06.676Z,99.90
2018-08-17T20:07:35.229Z,99.90
2018-08-17T20:10:03.914Z,99.90
2018-08-17T20:12:32.464Z,99.90
2018-08-17T20:15:01.002Z,99.90
2018-08-17T20:17:29.582Z,99.90
2018-08-17T20:19:58.102Z,99.90
2018-08-17T20:22:26.692Z,99.90
2018-08-17T20:24:55.245Z,99.90
2018-08-17T20:27:23.784Z,99.90
2018-08-17T20:29:52.415Z,99.90
2018-08-17T20:32:20.970Z,99.90
2018-08-17T20:34:50.113Z,99.90
2018-08-17T20:37:18.870Z,99.90
2018-08-17T20:39:47.785Z,99.90
2018-08-17T20:42:16.344Z,99.90
2018-08-17T20:44:44.884Z,99.90
2018-08-17T20:47:13.433Z,99.90
2018-08-17T20:49:41.961Z,99.90
2018-08-17T20:52:10.525Z,99.90
2018-08-17T20:54:39.093Z,99.90
2018-08-17T20:57:07.691Z,99.90
2018-08-17T20:59:36.207Z,99.90
2018-08-17T21:02:04.776Z,99.90
2018-08-17T21:04:33.343Z,99.90
2018-08-17T21:07:02.048Z,99.90
2018-08-17T21:09:30.572Z,99.90
2018-08-17T21:11:59.119Z,99.90
2018-08-17T21:14:27.664Z,99.90
2018-08-17T21:16:56.200Z,99.90
2018-08-17T21:19:33.075Z,99.90
2018-08-17T21:22:01.779Z,99.90
2018-08-17T21:24:30.301Z,99.90
2018-08-17T21:26:58.871Z,99.90
2018-08-17T21:29:27.589Z,99.90
2018-08-17T21:31:55.963Z,99.90
2018-08-17T21:34:24.528Z,99.90
2018-08-17T21:36:54.116Z,99.90
2018-08-17T21:39:22.639Z,99.90
2018-08-17T21:41:51.202Z,99.90
2018-08-17T21:44:20.697Z,99.90
2018-08-17T21:47:05.349Z,99.90
2018-08-17T21:49:35.199Z,99.90
2018-08-17T21:52:08.720Z,99.90
2018-08-17T21:54:37.292Z,99.90
2018-08-17T21:59:35.008Z,99.90
2018-08-17T22:02:04.932Z,99.90
2018-08-17T22:04:33.584Z,99.90
2018-08-17T22:07:05.925Z,99.90
2018-08-17T22:09:37.892Z,99.90
2018-08-17T22:12:07.198Z,99.90
2018-08-17T22:14:35.826Z,99.90
2018-08-17T22:17:04.526Z,99.90
2018-08-17T22:19:39.024Z,99.90
2018-08-17T22:22:09.598Z,99.90
2018-08-17T22:24:44.220Z,99.90
2018-08-17T22:27:15.888Z,99.90
2018-08-17T22:29:46.150Z,99.90
2018-08-17T22:32:14.623Z,99.90
2018-08-17T22:34:43.188Z,99.90
2018-08-17T22:37:11.751Z,99.90
2018-08-17T22:39:40.287Z,99.90
2018-08-17T22:42:08.901Z,99.90
2018-08-17T22:44:37.399Z,99.90
2018-08-17T22:47:25.731Z,99.90
2018-08-17T22:49:56.577Z,99.90
2018-08-17T22:52:25.211Z,99.90
2018-08-17T22:54:56.741Z,99.90
2018-08-17T22:57:25.891Z,99.90
2018-08-17T23:00:11.658Z,99.90
2018-08-17T23:02:41.231Z,99.90
2018-08-17T23:05:14.670Z,99.90
2018-08-17T23:07:43.291Z,99.90
2018-08-17T23:10:14.457Z,99.90
2018-08-17T23:12:43.834Z,99.90
2018-08-17T23:15:12.931Z,99.90
2018-08-17T23:17:44.481Z,99.90
2018-08-17T23:20:13.051Z,99.90
2018-08-17T23:22:47.436Z,99.90
2018-08-17T23:25:16.114Z,99.90
2018-08-17T23:27:44.868Z,99.90
2018-08-17T23:30:13.515Z,99.90
2018-08-17T23:32:42.180Z,99.90
2018-08-17T23:35:10.721Z,99.90
2018-08-17T23:37:39.688Z,99.90
2018-08-17T23:40:08.938Z,99.90
2018-08-17T23:42:37.510Z,99.90
2018-08-17T23:45:08.215Z,99.90
2018-08-17T23:47:36.770Z,99.90
2018-08-17T23:50:06.040Z,99.90
2018-08-17T23:52:34.647Z,99.90
2018-08-17T23:55:03.264Z,99.90
2018-08-17T23:57:31.814Z,99.90
